createdAt,value
2022-09-10T00:08:04.908Z,0.1
2022-09-10T00:18:05.033Z,0.1
2022-09-10T00:28:04.919Z,0.1
2022-09-10T00:38:05.030Z,0.2
2022-09-10T00:48:04.909Z,0.2
2022-09-10T00:58:05.030Z,0.2
2022-09-10T01:08:04.887Z,0.2
2022-09-10T01:18:05.012Z,0.2
2022-09-10T01:28:05.096Z,0.2
2022-09-10T01:38:05.026Z,0.3
2022-09-10T01:48:05.097Z,0.3
2022-09-10T01:58:05.008Z,0.3
2022-09-10T02:08:05.097Z,0.3
2022-09-10T02:18:05.012Z,0.3
2022-09-10T02:28:05.083Z,0.3
2022-09-10T02:38:05.010Z,0.4
2022-09-10T02:48:05.079Z,0.4
2022-09-10T02:58:05.190Z,0.4
2022-09-10T03:08:05.075Z,0.5
2022-09-10T03:18:05.214Z,0.5
2022-09-10T03:28:05.067Z,0.5
2022-09-10T03:38:05.185Z,0.5
2022-09-10T03:48:05.061Z,0.5
2022-09-10T03:58:05.194Z,0.5
2022-09-10T04:08:05.255Z,0.6
2022-09-10T04:18:05.195Z,0.6
2022-09-10T04:28:05.256Z,0.6
2022-09-10T04:38:05.164Z,0.6
2022-09-10T04:48:07.111Z,0.6
2022-09-10T04:58:05.178Z,0.6
2022-09-10T05:08:05.255Z,0.7
2022-09-10T05:18:05.174Z,0.7
2022-09-10T05:28:05.235Z,0.7
2022-09-10T05:38:05.367Z,0.7
2022-09-10T05:48:05.246Z,0.7
2022-09-10T05:58:05.362Z,0.7
2022-09-10T06:08:08.475Z,0.8
2022-09-10T06:18:05.356Z,0.8
2022-09-10T06:28:05.223Z,0.8
2022-09-10T06:38:05.357Z,0.8
2022-09-10T06:58:05.340Z,0.8
2022-09-10T07:08:05.417Z,0.9
2022-09-10T07:18:05.340Z,0.9
2022-09-10T07:28:05.424Z,0.9
2022-09-10T07:38:05.334Z,0.9
2022-09-10T07:48:05.415Z,0.9
2022-09-10T07:58:05.332Z,0.9
2022-09-10T08:08:05.396Z,1
2022-09-10T08:18:05.548Z,1
2022-09-10T08:28:05.409Z,1
2022-09-10T08:38:05.540Z,1.1
2022-09-10T08:48:05.391Z,1.1
2022-09-10T08:58:05.531Z,1.1
2022-09-10T09:08:05.408Z,1.1
2022-09-10T09:18:05.543Z,1.1
2022-09-10T09:28:05.405Z,1.1
2022-09-10T09:38:05.509Z,1.2
2022-09-10T09:48:05.662Z,1.2
2022-09-10T09:58:05.512Z,1.2
2022-09-10T10:08:05.615Z,1.2
2022-09-10T10:18:05.512Z,1.2
2022-09-10T10:28:05.575Z,1.2
2022-09-10T10:38:05.495Z,1.3
2022-09-10T10:48:05.616Z,1.3
2022-09-10T10:58:05.539Z,1.3
2022-09-10T11:08:05.618Z,1.3
2022-09-10T11:18:06.025Z,1.3
2022-09-10T11:28:05.614Z,1.3
2022-09-10T11:38:05.732Z,1.4
2022-09-10T11:48:05.602Z,1.4
2022-09-10T11:58:05.723Z,1.4
2022-09-10T12:08:05.626Z,1.4
2022-09-10T12:18:05.718Z,1.4
2022-09-10T12:28:05.628Z,1.4
2022-09-10T12:38:05.748Z,1.5
2022-09-10T12:48:05.804Z,1.5
2022-09-10T12:58:05.709Z,1.5
2022-09-10T13:08:05.828Z,1.5
2022-09-10T13:18:05.785Z,1.5
2022-09-10T13:28:05.814Z,1.5
2022-09-10T13:38:05.705Z,1.6
2022-09-10T13:48:05.869Z,1.6
2022-09-10T13:58:05.706Z,1.6
2022-09-10T14:08:05.792Z,1.6
2022-09-10T14:18:05.911Z,1.6
2022-09-10T14:28:05.780Z,1.6
2022-09-10T14:38:05.889Z,1.7
2022-09-10T14:48:05.763Z,1.7
2022-09-10T14:58:05.890Z,1.7
2022-09-10T15:08:05.768Z,1.8
2022-09-10T15:18:05.893Z,1.8
2022-09-10T15:28:05.755Z,1.8
2022-09-10T15:38:05.895Z,1.9
2022-09-10T15:48:05.947Z,1.9
2022-09-10T15:58:05.890Z,1.9
2022-09-10T16:08:05.949Z,1.9
2022-09-10T16:18:05.861Z,1.9
2022-09-10T16:28:05.939Z,1.9
2022-09-10T16:38:05.877Z,2
2022-09-10T16:48:05.965Z,2
2022-09-10T16:58:06.071Z,2
2022-09-10T17:08:05.937Z,2.1
2022-09-10T17:18:06.075Z,2.1
2022-09-10T17:28:06.003Z,2.1
2022-09-10T17:38:06.093Z,2.1
2022-09-10T17:48:05.959Z,2.1
2022-09-10T17:58:06.083Z,2.1
2022-09-10T18:08:05.978Z,2.2
2022-09-10T18:18:06.090Z,2.2
2022-09-10T18:28:05.962Z,2.2
2022-09-10T18:38:06.075Z,2.2
2022-09-10T18:48:06.163Z,2.2
2022-09-10T18:58:06.184Z,2.2
2022-09-10T19:08:06.141Z,2.3
2022-09-10T19:18:06.638Z,2.3
2022-09-10T19:28:06.156Z,2.3
2022-09-10T19:38:21.245Z,2.4
2022-09-10T19:48:06.123Z,2.4
2022-09-10T19:58:06.077Z,2.4
2022-09-10T20:08:06.129Z,2.4
2022-09-10T20:18:06.280Z,2.4
2022-09-10T20:28:06.117Z,2.4
2022-09-10T20:38:06.246Z,2.5
2022-09-10T20:48:06.133Z,2.5
2022-09-10T20:58:06.282Z,2.5
2022-09-10T21:08:06.141Z,2.6
2022-09-10T21:18:06.237Z,2.6
2022-09-10T21:28:06.316Z,2.6
2022-09-10T21:38:06.236Z,2.7
2022-09-10T21:48:06.326Z,2.7
2022-09-10T21:58:06.244Z,2.7
2022-09-10T22:08:06.304Z,2.8
2022-09-10T22:18:06.293Z,2.8
2022-09-10T22:28:06.473Z,2.8
2022-09-10T22:38:06.405Z,2.8
2022-09-10T22:48:06.313Z,2.8
2022-09-10T22:58:06.429Z,2.8
2022-09-10T23:08:06.352Z,0
2022-09-10T23:18:06.413Z,0
2022-09-10T23:28:07.349Z,0
2022-09-10T23:38:06.403Z,0.1
2022-09-10T23:48:06.293Z,0.1
2022-09-10T23:58:06.399Z,0.1
